sensor_id;sensor_type;location;lat;lon;timestamp;P1;durP1;ratioP1;P2;durP2;ratioP2
60472;SDS011;46318;52.716;6.444;2022-10-31T00:00:21;18.05;;;12.88;;
60472;SDS011;46318;52.716;6.444;2022-10-31T00:02:47;16.52;;;12.68;;
60472;SDS011;46318;52.716;6.444;2022-10-31T00:05:12;20.25;;;13.07;;
60472;SDS011;46318;52.716;6.444;2022-10-31T00:07:38;17.90;;;12.38;;
60472;SDS011;46318;52.716;6.444;2022-10-31T00:10:04;15.57;;;12.40;;
60472;SDS011;46318;52.716;6.444;2022-10-31T00:12:31;19.10;;;11.82;;
60472;SDS011;46318;52.716;6.444;2022-10-31T00:14:56;16.42;;;11.88;;
60472;SDS011;46318;52.716;6.444;2022-10-31T00:17:22;17.98;;;12.35;;
60472;SDS011;46318;52.716;6.444;2022-10-31T00:19:48;18.27;;;12.32;;
60472;SDS011;46318;52.716;6.444;2022-10-31T00:22:14;15.93;;;12.85;;
60472;SDS011;46318;52.716;6.444;2022-10-31T00:24:39;19.58;;;13.43;;
60472;SDS011;46318;52.716;6.444;2022-10-31T00:27:05;16.75;;;12.75;;
60472;SDS011;46318;52.716;6.444;2022-10-31T00:29:31;17.55;;;12.07;;
60472;SDS011;46318;52.716;6.444;2022-10-31T00:31:57;15.88;;;12.25;;
60472;SDS011;46318;52.716;6.444;2022-10-31T00:34:23;19.77;;;13.00;;
60472;SDS011;46318;52.716;6.444;2022-10-31T00:36:48;15.52;;;12.88;;
60472;SDS011;46318;52.716;6.444;2022-10-31T00:39:14;17.25;;;12.98;;
60472;SDS011;46318;52.716;6.444;2022-10-31T00:41:40;18.25;;;12.38;;
60472;SDS011;46318;52.716;6.444;2022-10-31T00:44:06;15.35;;;12.20;;
60472;SDS011;46318;52.716;6.444;2022-10-31T00:46:32;15.35;;;12.88;;
60472;SDS011;46318;52.716;6.444;2022-10-31T00:48:58;18.73;;;13.13;;
60472;SDS011;46318;52.716;6.444;2022-10-31T00:51:24;16.35;;;12.75;;
60472;SDS011;46318;52.716;6.444;2022-10-31T00:53:49;19.48;;;13.80;;
60472;SDS011;46318;52.716;6.444;2022-10-31T00:56:15;17.85;;;13.43;;
60472;SDS011;46318;52.716;6.444;2022-10-31T00:58:41;20.35;;;13.82;;
60472;SDS011;46318;52.716;6.444;2022-10-31T01:01:07;20.17;;;13.27;;
60472;SDS011;46318;52.716;6.444;2022-10-31T01:03:32;18.15;;;13.23;;
60472;SDS011;46318;52.716;6.444;2022-10-31T01:06:03;18.13;;;13.73;;
60472;SDS011;46318;52.716;6.444;2022-10-31T01:08:36;17.92;;;13.25;;
60472;SDS011;46318;52.716;6.444;2022-10-31T01:13:37;15.15;;;13.25;;
60472;SDS011;46318;52.716;6.444;2022-10-31T01:16:04;22.60;;;14.38;;
60472;SDS011;46318;52.716;6.444;2022-10-31T01:18:32;18.98;;;14.32;;
60472;SDS011;46318;52.716;6.444;2022-10-31T01:20:59;16.58;;;12.93;;
60472;SDS011;46318;52.716;6.444;2022-10-31T01:23:41;16.92;;;13.73;;
60472;SDS011;46318;52.716;6.444;2022-10-31T01:26:28;18.20;;;13.25;;
60472;SDS011;46318;52.716;6.444;2022-10-31T01:29:13;18.52;;;14.38;;
60472;SDS011;46318;52.716;6.444;2022-10-31T01:31:39;20.52;;;13.75;;
60472;SDS011;46318;52.716;6.444;2022-10-31T01:34:05;20.08;;;14.13;;
60472;SDS011;46318;52.716;6.444;2022-10-31T01:36:32;15.57;;;12.27;;
60472;SDS011;46318;52.716;6.444;2022-10-31T01:39:02;18.02;;;13.02;;
60472;SDS011;46318;52.716;6.444;2022-10-31T01:41:33;18.42;;;13.20;;
60472;SDS011;46318;52.716;6.444;2022-10-31T01:44:02;16.10;;;12.63;;
60472;SDS011;46318;52.716;6.444;2022-10-31T01:46:52;16.15;;;13.05;;
60472;SDS011;46318;52.716;6.444;2022-10-31T01:54:41;18.67;;;13.48;;
60472;SDS011;46318;52.716;6.444;2022-10-31T01:57:12;15.30;;;13.07;;
60472;SDS011;46318;52.716;6.444;2022-10-31T01:59:42;17.42;;;13.15;;
60472;SDS011;46318;52.716;6.444;2022-10-31T02:02:13;19.15;;;13.27;;
60472;SDS011;46318;52.716;6.444;2022-10-31T02:04:41;15.25;;;12.65;;
60472;SDS011;46318;52.716;6.444;2022-10-31T02:07:12;15.60;;;13.68;;
60472;SDS011;46318;52.716;6.444;2022-10-31T02:09:43;16.08;;;12.93;;
60472;SDS011;46318;52.716;6.444;2022-10-31T02:12:11;17.05;;;13.27;;
60472;SDS011;46318;52.716;6.444;2022-10-31T02:14:38;16.00;;;13.05;;
60472;SDS011;46318;52.716;6.444;2022-10-31T02:17:04;16.60;;;13.27;;
60472;SDS011;46318;52.716;6.444;2022-10-31T02:34:44;16.17;;;12.45;;
60472;SDS011;46318;52.716;6.444;2022-10-31T02:37:33;16.90;;;12.82;;
60472;SDS011;46318;52.716;6.444;2022-10-31T02:40:23;15.43;;;12.93;;
60472;SDS011;46318;52.716;6.444;2022-10-31T02:45:53;15.20;;;12.85;;
60472;SDS011;46318;52.716;6.444;2022-10-31T02:48:39;17.08;;;12.48;;
60472;SDS011;46318;52.716;6.444;2022-10-31T02:51:09;16.98;;;12.88;;
60472;SDS011;46318;52.716;6.444;2022-10-31T02:53:37;15.50;;;12.90;;
60472;SDS011;46318;52.716;6.444;2022-10-31T02:56:11;14.80;;;12.57;;
60472;SDS011;46318;52.716;6.444;2022-10-31T02:58:41;16.17;;;12.10;;
60472;SDS011;46318;52.716;6.444;2022-10-31T03:01:39;14.05;;;11.95;;
60472;SDS011;46318;52.716;6.444;2022-10-31T03:10:21;17.05;;;12.13;;
60472;SDS011;46318;52.716;6.444;2022-10-31T03:16:15;13.70;;;12.00;;
60472;SDS011;46318;52.716;6.444;2022-10-31T03:18:50;14.43;;;12.52;;
60472;SDS011;46318;52.716;6.444;2022-10-31T03:21:40;16.27;;;13.68;;
60472;SDS011;46318;52.716;6.444;2022-10-31T03:24:15;15.95;;;11.90;;
60472;SDS011;46318;52.716;6.444;2022-10-31T03:26:46;15.35;;;12.43;;
60472;SDS011;46318;52.716;6.444;2022-10-31T03:29:18;17.45;;;12.60;;
60472;SDS011;46318;52.716;6.444;2022-10-31T03:31:53;18.85;;;13.10;;
60472;SDS011;46318;52.716;6.444;2022-10-31T03:34:23;14.48;;;12.68;;
60472;SDS011;46318;52.716;6.444;2022-10-31T03:36:49;15.73;;;13.18;;
60472;SDS011;46318;52.716;6.444;2022-10-31T03:39:20;16.08;;;13.38;;
60472;SDS011;46318;52.716;6.444;2022-10-31T03:41:58;15.52;;;13.45;;
60472;SDS011;46318;52.716;6.444;2022-10-31T03:44:32;18.05;;;13.25;;
60472;SDS011;46318;52.716;6.444;2022-10-31T03:47:00;17.20;;;13.82;;
60472;SDS011;46318;52.716;6.444;2022-10-31T03:49:27;17.00;;;14.05;;
60472;SDS011;46318;52.716;6.444;2022-10-31T03:54:56;17.75;;;14.00;;
60472;SDS011;46318;52.716;6.444;2022-10-31T03:57:46;19.48;;;13.80;;
60472;SDS011;46318;52.716;6.444;2022-10-31T04:00:19;16.00;;;13.35;;
60472;SDS011;46318;52.716;6.444;2022-10-31T04:02:49;14.43;;;12.85;;
60472;SDS011;46318;52.716;6.444;2022-10-31T04:05:32;14.75;;;13.18;;
60472;SDS011;46318;52.716;6.444;2022-10-31T04:08:00;15.18;;;13.02;;
60472;SDS011;46318;52.716;6.444;2022-10-31T04:10:29;17.77;;;13.68;;
60472;SDS011;46318;52.716;6.444;2022-10-31T04:12:57;14.82;;;12.93;;
60472;SDS011;46318;52.716;6.444;2022-10-31T04:15:30;16.35;;;13.93;;
60472;SDS011;46318;52.716;6.444;2022-10-31T04:17:57;15.43;;;13.30;;
60472;SDS011;46318;52.716;6.444;2022-10-31T04:20:32;15.80;;;13.48;;
60472;SDS011;46318;52.716;6.444;2022-10-31T04:23:00;15.25;;;12.68;;
60472;SDS011;46318;52.716;6.444;2022-10-31T04:25:27;16.63;;;12.60;;
60472;SDS011;46318;52.716;6.444;2022-10-31T04:27:53;18.90;;;13.23;;
60472;SDS011;46318;52.716;6.444;2022-10-31T04:30:19;15.30;;;12.82;;
60472;SDS011;46318;52.716;6.444;2022-10-31T04:32:44;15.27;;;13.57;;
60472;SDS011;46318;52.716;6.444;2022-10-31T04:35:10;16.70;;;13.00;;
60472;SDS011;46318;52.716;6.444;2022-10-31T04:37:36;18.60;;;13.80;;
60472;SDS011;46318;52.716;6.444;2022-10-31T04:40:01;15.68;;;13.43;;
60472;SDS011;46318;52.716;6.444;2022-10-31T04:42:31;15.90;;;13.23;;
60472;SDS011;46318;52.716;6.444;2022-10-31T04:44:57;17.10;;;12.82;;
60472;SDS011;46318;52.716;6.444;2022-10-31T04:47:22;17.17;;;13.25;;
60472;SDS011;46318;52.716;6.444;2022-10-31T04:49:48;18.45;;;13.13;;
60472;SDS011;46318;52.716;6.444;2022-10-31T04:52:14;15.13;;;13.48;;
60472;SDS011;46318;52.716;6.444;2022-10-31T04:54:40;17.42;;;14.13;;
60472;SDS011;46318;52.716;6.444;2022-10-31T04:57:05;15.15;;;13.55;;
60472;SDS011;46318;52.716;6.444;2022-10-31T04:59:31;17.65;;;14.00;;
60472;SDS011;46318;52.716;6.444;2022-10-31T05:01:57;17.38;;;13.23;;
60472;SDS011;46318;52.716;6.444;2022-10-31T05:04:22;16.27;;;13.82;;
60472;SDS011;46318;52.716;6.444;2022-10-31T05:06:48;15.45;;;13.85;;
60472;SDS011;46318;52.716;6.444;2022-10-31T05:09:14;15.88;;;13.38;;
60472;SDS011;46318;52.716;6.444;2022-10-31T05:11:39;14.77;;;13.20;;
60472;SDS011;46318;52.716;6.444;2022-10-31T05:14:05;18.30;;;13.30;;
60472;SDS011;46318;52.716;6.444;2022-10-31T05:16:31;16.95;;;13.93;;
60472;SDS011;46318;52.716;6.444;2022-10-31T05:18:57;15.60;;;13.82;;
60472;SDS011;46318;52.716;6.444;2022-10-31T05:21:22;17.30;;;13.93;;
60472;SDS011;46318;52.716;6.444;2022-10-31T05:23:48;15.30;;;13.48;;
60472;SDS011;46318;52.716;6.444;2022-10-31T05:26:14;16.75;;;13.75;;
60472;SDS011;46318;52.716;6.444;2022-10-31T05:28:40;16.95;;;14.45;;
60472;SDS011;46318;52.716;6.444;2022-10-31T05:31:05;16.00;;;13.43;;
60472;SDS011;46318;52.716;6.444;2022-10-31T05:33:31;17.42;;;14.20;;
60472;SDS011;46318;52.716;6.444;2022-10-31T05:35:57;17.95;;;13.27;;
60472;SDS011;46318;52.716;6.444;2022-10-31T05:38:22;14.80;;;13.15;;
60472;SDS011;46318;52.716;6.444;2022-10-31T05:40:48;18.70;;;14.52;;
60472;SDS011;46318;52.716;6.444;2022-10-31T05:43:14;17.42;;;14.07;;
60472;SDS011;46318;52.716;6.444;2022-10-31T05:45:40;17.17;;;13.88;;
60472;SDS011;46318;52.716;6.444;2022-10-31T05:48:05;16.60;;;14.90;;
60472;SDS011;46318;52.716;6.444;2022-10-31T05:50:31;18.60;;;14.55;;
60472;SDS011;46318;52.716;6.444;2022-10-31T05:52:58;17.77;;;15.25;;
60472;SDS011;46318;52.716;6.444;2022-10-31T05:55:26;18.98;;;14.05;;
60472;SDS011;46318;52.716;6.444;2022-10-31T05:57:53;18.48;;;15.05;;
60472;SDS011;46318;52.716;6.444;2022-10-31T06:00:19;19.00;;;14.43;;
60472;SDS011;46318;52.716;6.444;2022-10-31T06:02:47;17.63;;;15.65;;
60472;SDS011;46318;52.716;6.444;2022-10-31T06:05:13;17.48;;;15.68;;
60472;SDS011;46318;52.716;6.444;2022-10-31T06:07:40;15.50;;;13.90;;
60472;SDS011;46318;52.716;6.444;2022-10-31T06:10:06;16.70;;;14.43;;
60472;SDS011;46318;52.716;6.444;2022-10-31T06:12:33;15.70;;;14.05;;
60472;SDS011;46318;52.716;6.444;2022-10-31T06:15:03;16.80;;;14.23;;
60472;SDS011;46318;52.716;6.444;2022-10-31T06:17:30;16.98;;;14.50;;
60472;SDS011;46318;52.716;6.444;2022-10-31T06:19:57;16.50;;;14.77;;
60472;SDS011;46318;52.716;6.444;2022-10-31T06:22:22;17.40;;;14.70;;
60472;SDS011;46318;52.716;6.444;2022-10-31T06:24:48;16.17;;;14.38;;
60472;SDS011;46318;52.716;6.444;2022-10-31T06:27:14;16.08;;;13.80;;
60472;SDS011;46318;52.716;6.444;2022-10-31T06:29:39;15.40;;;13.88;;
60472;SDS011;46318;52.716;6.444;2022-10-31T06:32:05;16.02;;;13.88;;
60472;SDS011;46318;52.716;6.444;2022-10-31T06:34:33;14.77;;;13.32;;
60472;SDS011;46318;52.716;6.444;2022-10-31T06:36:59;14.15;;;12.75;;
60472;SDS011;46318;52.716;6.444;2022-10-31T06:39:25;14.68;;;13.18;;
60472;SDS011;46318;52.716;6.444;2022-10-31T06:41:50;15.00;;;13.60;;
60472;SDS011;46318;52.716;6.444;2022-10-31T06:44:16;22.73;;;17.70;;
60472;SDS011;46318;52.716;6.444;2022-10-31T06:46:42;18.02;;;15.90;;
60472;SDS011;46318;52.716;6.444;2022-10-31T06:49:08;16.23;;;14.55;;
60472;SDS011;46318;52.716;6.444;2022-10-31T06:51:33;15.27;;;13.02;;
60472;SDS011;46318;52.716;6.444;2022-10-31T06:53:59;14.73;;;13.32;;
60472;SDS011;46318;52.716;6.444;2022-10-31T06:56:25;13.98;;;12.65;;
60472;SDS011;46318;52.716;6.444;2022-10-31T06:58:51;14.40;;;12.93;;
60472;SDS011;46318;52.716;6.444;2022-10-31T07:01:16;15.02;;;13.63;;
60472;SDS011;46318;52.716;6.444;2022-10-31T07:03:42;13.98;;;12.57;;
60472;SDS011;46318;52.716;6.444;2022-10-31T07:06:08;16.73;;;14.93;;
60472;SDS011;46318;52.716;6.444;2022-10-31T07:08:33;17.02;;;15.35;;
60472;SDS011;46318;52.716;6.444;2022-10-31T07:10:59;18.77;;;16.95;;
60472;SDS011;46318;52.716;6.444;2022-10-31T07:13:25;22.67;;;20.25;;
60472;SDS011;46318;52.716;6.444;2022-10-31T07:15:52;22.48;;;20.17;;
60472;SDS011;46318;52.716;6.444;2022-10-31T07:18:20;21.20;;;18.45;;
60472;SDS011;46318;52.716;6.444;2022-10-31T07:20:47;22.95;;;20.48;;
60472;SDS011;46318;52.716;6.444;2022-10-31T07:23:13;23.02;;;20.52;;
60472;SDS011;46318;52.716;6.444;2022-10-31T07:25:39;24.77;;;20.92;;
60472;SDS011;46318;52.716;6.444;2022-10-31T07:28:05;22.63;;;20.27;;
60472;SDS011;46318;52.716;6.444;2022-10-31T07:30:32;22.77;;;19.65;;
60472;SDS011;46318;52.716;6.444;2022-10-31T07:32:58;19.75;;;17.70;;
60472;SDS011;46318;52.716;6.444;2022-10-31T07:35:27;23.20;;;20.27;;
60472;SDS011;46318;52.716;6.444;2022-10-31T07:37:54;21.42;;;19.13;;
60472;SDS011;46318;52.716;6.444;2022-10-31T07:40:21;23.02;;;20.45;;
60472;SDS011;46318;52.716;6.444;2022-10-31T07:42:51;25.02;;;20.45;;
60472;SDS011;46318;52.716;6.444;2022-10-31T07:45:19;24.08;;;18.50;;
60472;SDS011;46318;52.716;6.444;2022-10-31T07:47:46;23.08;;;19.73;;
60472;SDS011;46318;52.716;6.444;2022-10-31T07:50:16;36.35;;;23.80;;
60472;SDS011;46318;52.716;6.444;2022-10-31T07:52:44;31.60;;;21.73;;
60472;SDS011;46318;52.716;6.444;2022-10-31T07:55:10;24.83;;;21.77;;
60472;SDS011;46318;52.716;6.444;2022-10-31T07:57:37;34.80;;;24.83;;
60472;SDS011;46318;52.716;6.444;2022-10-31T08:00:06;22.23;;;19.92;;
60472;SDS011;46318;52.716;6.444;2022-10-31T08:02:34;29.02;;;21.60;;
60472;SDS011;46318;52.716;6.444;2022-10-31T08:05:00;26.20;;;21.52;;
60472;SDS011;46318;52.716;6.444;2022-10-31T08:07:27;40.40;;;23.00;;
60472;SDS011;46318;52.716;6.444;2022-10-31T08:09:53;37.88;;;22.92;;
60472;SDS011;46318;52.716;6.444;2022-10-31T08:12:20;26.30;;;22.55;;
60472;SDS011;46318;52.716;6.444;2022-10-31T08:14:46;51.45;;;29.13;;
60472;SDS011;46318;52.716;6.444;2022-10-31T08:17:12;69.90;;;32.97;;
60472;SDS011;46318;52.716;6.444;2022-10-31T08:19:38;31.15;;;27.40;;
60472;SDS011;46318;52.716;6.444;2022-10-31T08:22:03;28.38;;;24.30;;
60472;SDS011;46318;52.716;6.444;2022-10-31T08:24:29;34.80;;;27.88;;
60472;SDS011;46318;52.716;6.444;2022-10-31T08:26:55;27.52;;;24.02;;
60472;SDS011;46318;52.716;6.444;2022-10-31T08:29:21;29.85;;;25.65;;
60472;SDS011;46318;52.716;6.444;2022-10-31T08:31:46;37.67;;;28.02;;
60472;SDS011;46318;52.716;6.444;2022-10-31T08:34:12;47.00;;;31.90;;
60472;SDS011;46318;52.716;6.444;2022-10-31T08:36:38;40.38;;;34.08;;
60472;SDS011;46318;52.716;6.444;2022-10-31T08:39:03;42.63;;;35.05;;
60472;SDS011;46318;52.716;6.444;2022-10-31T08:41:29;33.95;;;29.70;;
60472;SDS011;46318;52.716;6.444;2022-10-31T08:43:55;46.65;;;37.55;;
60472;SDS011;46318;52.716;6.444;2022-10-31T08:46:21;47.08;;;36.08;;
60472;SDS011;46318;52.716;6.444;2022-10-31T08:48:47;50.63;;;39.30;;
60472;SDS011;46318;52.716;6.444;2022-10-31T08:51:13;50.78;;;38.58;;
60472;SDS011;46318;52.716;6.444;2022-10-31T08:53:39;47.42;;;38.10;;
60472;SDS011;46318;52.716;6.444;2022-10-31T08:56:05;57.00;;;40.63;;
60472;SDS011;46318;52.716;6.444;2022-10-31T08:58:31;51.45;;;38.15;;
60472;SDS011;46318;52.716;6.444;2022-10-31T09:00:58;44.90;;;37.30;;
60472;SDS011;46318;52.716;6.444;2022-10-31T09:03:26;46.67;;;38.25;;
60472;SDS011;46318;52.716;6.444;2022-10-31T09:05:55;49.97;;;39.88;;
60472;SDS011;46318;52.716;6.444;2022-10-31T09:08:23;47.30;;;38.22;;
60472;SDS011;46318;52.716;6.444;2022-10-31T09:10:49;49.08;;;38.10;;
60472;SDS011;46318;52.716;6.444;2022-10-31T09:13:17;53.65;;;40.63;;
60472;SDS011;46318;52.716;6.444;2022-10-31T09:15:45;46.70;;;38.50;;
60472;SDS011;46318;52.716;6.444;2022-10-31T09:18:13;54.55;;;44.15;;
60472;SDS011;46318;52.716;6.444;2022-10-31T09:20:42;51.90;;;41.80;;
60472;SDS011;46318;52.716;6.444;2022-10-31T09:23:10;44.85;;;35.78;;
60472;SDS011;46318;52.716;6.444;2022-10-31T09:25:48;51.13;;;41.08;;
60472;SDS011;46318;52.716;6.444;2022-10-31T09:28:16;51.72;;;42.28;;
60472;SDS011;46318;52.716;6.444;2022-10-31T09:30:46;55.47;;;43.10;;
60472;SDS011;46318;52.716;6.444;2022-10-31T09:33:13;59.97;;;46.08;;
60472;SDS011;46318;52.716;6.444;2022-10-31T09:35:40;61.80;;;48.03;;
60472;SDS011;46318;52.716;6.444;2022-10-31T09:38:10;58.40;;;47.38;;
60472;SDS011;46318;52.716;6.444;2022-10-31T09:40:43;61.60;;;48.33;;
60472;SDS011;46318;52.716;6.444;2022-10-31T09:48:55;66.57;;;50.88;;
60472;SDS011;46318;52.716;6.444;2022-10-31T09:52:08;56.78;;;46.15;;
60472;SDS011;46318;52.716;6.444;2022-10-31T09:57:19;68.30;;;56.33;;
60472;SDS011;46318;52.716;6.444;2022-10-31T09:59:53;66.72;;;54.80;;
60472;SDS011;46318;52.716;6.444;2022-10-31T10:05:02;65.20;;;52.80;;
60472;SDS011;46318;52.716;6.444;2022-10-31T10:07:41;67.70;;;51.83;;
60472;SDS011;46318;52.716;6.444;2022-10-31T10:13:24;59.75;;;48.40;;
60472;SDS011;46318;52.716;6.444;2022-10-31T10:16:09;61.90;;;48.15;;
60472;SDS011;46318;52.716;6.444;2022-10-31T10:30:41;59.83;;;44.63;;
60472;SDS011;46318;52.716;6.444;2022-10-31T10:33:28;57.70;;;45.05;;
60472;SDS011;46318;52.716;6.444;2022-10-31T10:36:02;57.60;;;43.13;;
60472;SDS011;46318;52.716;6.444;2022-10-31T10:38:38;53.58;;;39.80;;
60472;SDS011;46318;52.716;6.444;2022-10-31T10:43:48;48.78;;;38.17;;
60472;SDS011;46318;52.716;6.444;2022-10-31T10:49:25;46.60;;;37.85;;
60472;SDS011;46318;52.716;6.444;2022-10-31T10:52:07;49.40;;;37.45;;
60472;SDS011;46318;52.716;6.444;2022-10-31T11:00:27;46.50;;;35.95;;
60472;SDS011;46318;52.716;6.444;2022-10-31T11:02:56;49.35;;;34.85;;
60472;SDS011;46318;52.716;6.444;2022-10-31T11:05:24;40.90;;;32.00;;
60472;SDS011;46318;52.716;6.444;2022-10-31T11:08:04;39.13;;;31.83;;
60472;SDS011;46318;52.716;6.444;2022-10-31T11:10:31;32.35;;;26.25;;
60472;SDS011;46318;52.716;6.444;2022-10-31T11:18:30;31.85;;;23.83;;
60472;SDS011;46318;52.716;6.444;2022-10-31T11:20:59;33.00;;;25.52;;
60472;SDS011;46318;52.716;6.444;2022-10-31T11:23:30;32.63;;;23.83;;
60472;SDS011;46318;52.716;6.444;2022-10-31T11:26:02;29.25;;;23.00;;
60472;SDS011;46318;52.716;6.444;2022-10-31T11:28:31;32.90;;;23.98;;
60472;SDS011;46318;52.716;6.444;2022-10-31T11:31:00;33.10;;;24.13;;
60472;SDS011;46318;52.716;6.444;2022-10-31T11:34:12;29.48;;;23.38;;
60472;SDS011;46318;52.716;6.444;2022-10-31T11:36:30;31.13;;;23.35;;
60472;SDS011;46318;52.716;6.444;2022-10-31T11:39:00;27.67;;;22.70;;
60472;SDS011;46318;52.716;6.444;2022-10-31T11:46:33;26.98;;;19.95;;
60472;SDS011;46318;52.716;6.444;2022-10-31T11:49:03;27.88;;;19.73;;
60472;SDS011;46318;52.716;6.444;2022-10-31T11:51:38;24.77;;;19.70;;
60472;SDS011;46318;52.716;6.444;2022-10-31T11:54:05;28.48;;;21.48;;
60472;SDS011;46318;52.716;6.444;2022-10-31T11:56:41;27.52;;;21.15;;
60472;SDS011;46318;52.716;6.444;2022-10-31T11:59:26;25.30;;;20.45;;
60472;SDS011;46318;52.716;6.444;2022-10-31T12:01:55;26.30;;;19.08;;
60472;SDS011;46318;52.716;6.444;2022-10-31T12:07:06;24.52;;;17.88;;
60472;SDS011;46318;52.716;6.444;2022-10-31T12:09:33;25.75;;;17.92;;
60472;SDS011;46318;52.716;6.444;2022-10-31T12:12:07;23.10;;;17.13;;
60472;SDS011;46318;52.716;6.444;2022-10-31T12:34:54;19.27;;;14.10;;
60472;SDS011;46318;52.716;6.444;2022-10-31T12:37:53;19.73;;;13.80;;
60472;SDS011;46318;52.716;6.444;2022-10-31T12:47:01;20.25;;;13.75;;
60472;SDS011;46318;52.716;6.444;2022-10-31T12:52:56;19.98;;;13.05;;
60472;SDS011;46318;52.716;6.444;2022-10-31T12:58:35;18.20;;;13.07;;
60472;SDS011;46318;52.716;6.444;2022-10-31T13:01:12;17.55;;;11.88;;
60472;SDS011;46318;52.716;6.444;2022-10-31T13:03:45;15.50;;;11.90;;
60472;SDS011;46318;52.716;6.444;2022-10-31T13:06:19;19.27;;;12.65;;
60472;SDS011;46318;52.716;6.444;2022-10-31T13:08:53;16.85;;;11.65;;
60472;SDS011;46318;52.716;6.444;2022-10-31T13:11:30;16.10;;;11.57;;
60472;SDS011;46318;52.716;6.444;2022-10-31T13:14:11;14.02;;;11.52;;
60472;SDS011;46318;52.716;6.444;2022-10-31T13:16:49;16.65;;;12.32;;
60472;SDS011;46318;52.716;6.444;2022-10-31T13:19:17;14.98;;;11.15;;
60472;SDS011;46318;52.716;6.444;2022-10-31T13:22:06;15.02;;;11.85;;
60472;SDS011;46318;52.716;6.444;2022-10-31T13:30:36;14.90;;;11.65;;
60472;SDS011;46318;52.716;6.444;2022-10-31T13:35:52;16.63;;;10.93;;
60472;SDS011;46318;52.716;6.444;2022-10-31T13:38:32;20.30;;;12.48;;
60472;SDS011;46318;52.716;6.444;2022-10-31T13:41:57;16.42;;;12.48;;
60472;SDS011;46318;52.716;6.444;2022-10-31T13:44:26;16.08;;;12.02;;
60472;SDS011;46318;52.716;6.444;2022-10-31T13:46:54;14.80;;;11.48;;
60472;SDS011;46318;52.716;6.444;2022-10-31T13:57:07;15.50;;;12.32;;
60472;SDS011;46318;52.716;6.444;2022-10-31T14:00:02;18.02;;;12.70;;
60472;SDS011;46318;52.716;6.444;2022-10-31T14:02:49;16.02;;;11.80;;
60472;SDS011;46318;52.716;6.444;2022-10-31T14:07:59;14.65;;;10.90;;
60472;SDS011;46318;52.716;6.444;2022-10-31T14:13:22;13.95;;;10.80;;
60472;SDS011;46318;52.716;6.444;2022-10-31T14:16:26;17.15;;;11.10;;
60472;SDS011;46318;52.716;6.444;2022-10-31T14:18:58;14.38;;;11.02;;
60472;SDS011;46318;52.716;6.444;2022-10-31T14:21:40;15.38;;;11.60;;
60472;SDS011;46318;52.716;6.444;2022-10-31T14:26:57;16.92;;;11.73;;
60472;SDS011;46318;52.716;6.444;2022-10-31T14:29:29;14.32;;;11.32;;
60472;SDS011;46318;52.716;6.444;2022-10-31T14:32:04;15.98;;;11.75;;
60472;SDS011;46318;52.716;6.444;2022-10-31T14:34:37;17.48;;;10.90;;
60472;SDS011;46318;52.716;6.444;2022-10-31T14:46:38;17.13;;;10.60;;
60472;SDS011;46318;52.716;6.444;2022-10-31T14:52:10;14.02;;;10.38;;
60472;SDS011;46318;52.716;6.444;2022-10-31T14:54:40;17.02;;;11.82;;
60472;SDS011;46318;52.716;6.444;2022-10-31T14:57:15;15.32;;;11.80;;
60472;SDS011;46318;52.716;6.444;2022-10-31T14:59:48;14.30;;;11.20;;
60472;SDS011;46318;52.716;6.444;2022-10-31T15:05:23;18.90;;;12.73;;
60472;SDS011;46318;52.716;6.444;2022-10-31T15:07:53;20.00;;;12.10;;
60472;SDS011;46318;52.716;6.444;2022-10-31T15:10:22;16.77;;;12.35;;
60472;SDS011;46318;52.716;6.444;2022-10-31T15:13:07;18.08;;;12.32;;
60472;SDS011;46318;52.716;6.444;2022-10-31T15:15:47;16.65;;;13.70;;
60472;SDS011;46318;52.716;6.444;2022-10-31T15:18:16;17.40;;;12.95;;
60472;SDS011;46318;52.716;6.444;2022-10-31T15:20:45;17.63;;;13.07;;
60472;SDS011;46318;52.716;6.444;2022-10-31T15:23:16;15.88;;;12.32;;
60472;SDS011;46318;52.716;6.444;2022-10-31T15:25:57;15.23;;;12.98;;
60472;SDS011;46318;52.716;6.444;2022-10-31T15:28:29;18.50;;;13.32;;
60472;SDS011;46318;52.716;6.444;2022-10-31T15:30:57;17.25;;;13.05;;
60472;SDS011;46318;52.716;6.444;2022-10-31T15:33:26;16.92;;;12.88;;
60472;SDS011;46318;52.716;6.444;2022-10-31T15:35:58;16.80;;;12.88;;
60472;SDS011;46318;52.716;6.444;2022-10-31T15:38:26;15.30;;;12.80;;
60472;SDS011;46318;52.716;6.444;2022-10-31T15:41:03;15.90;;;12.52;;
60472;SDS011;46318;52.716;6.444;2022-10-31T15:43:53;18.80;;;11.93;;
60472;SDS011;46318;52.716;6.444;2022-10-31T15:46:20;17.10;;;13.50;;
60472;SDS011;46318;52.716;6.444;2022-10-31T15:48:46;16.13;;;13.23;;
60472;SDS011;46318;52.716;6.444;2022-10-31T15:51:13;14.43;;;11.30;;
60472;SDS011;46318;52.716;6.444;2022-10-31T15:53:44;15.23;;;12.35;;
60472;SDS011;46318;52.716;6.444;2022-10-31T15:56:20;14.95;;;12.57;;
60472;SDS011;46318;52.716;6.444;2022-10-31T15:58:50;15.75;;;12.38;;
60472;SDS011;46318;52.716;6.444;2022-10-31T16:06:24;17.05;;;12.00;;
60472;SDS011;46318;52.716;6.444;2022-10-31T16:08:50;16.52;;;12.40;;
60472;SDS011;46318;52.716;6.444;2022-10-31T16:11:35;17.45;;;12.10;;
60472;SDS011;46318;52.716;6.444;2022-10-31T16:14:07;18.55;;;13.48;;
60472;SDS011;46318;52.716;6.444;2022-10-31T16:16:55;20.20;;;13.32;;
60472;SDS011;46318;52.716;6.444;2022-10-31T16:19:34;20.25;;;13.73;;
60472;SDS011;46318;52.716;6.444;2022-10-31T16:22:04;19.65;;;13.40;;
60472;SDS011;46318;52.716;6.444;2022-10-31T16:24:37;22.13;;;13.45;;
60472;SDS011;46318;52.716;6.444;2022-10-31T16:27:35;25.00;;;14.70;;
60472;SDS011;46318;52.716;6.444;2022-10-31T16:30:03;19.63;;;14.50;;
60472;SDS011;46318;52.716;6.444;2022-10-31T16:35:53;21.80;;;15.33;;
60472;SDS011;46318;52.716;6.444;2022-10-31T16:38:21;19.60;;;14.57;;
60472;SDS011;46318;52.716;6.444;2022-10-31T16:40:47;19.95;;;14.98;;
60472;SDS011;46318;52.716;6.444;2022-10-31T16:43:14;18.73;;;14.77;;
60472;SDS011;46318;52.716;6.444;2022-10-31T16:45:43;18.23;;;14.68;;
60472;SDS011;46318;52.716;6.444;2022-10-31T16:48:15;20.00;;;14.17;;
60472;SDS011;46318;52.716;6.444;2022-10-31T16:50:48;19.58;;;15.68;;
60472;SDS011;46318;52.716;6.444;2022-10-31T16:53:18;25.55;;;16.15;;
60472;SDS011;46318;52.716;6.444;2022-10-31T16:55:45;18.65;;;15.60;;
60472;SDS011;46318;52.716;6.444;2022-10-31T16:58:24;24.05;;;16.15;;
60472;SDS011;46318;52.716;6.444;2022-10-31T17:00:54;22.83;;;15.55;;
60472;SDS011;46318;52.716;6.444;2022-10-31T17:03:21;21.48;;;16.02;;
60472;SDS011;46318;52.716;6.444;2022-10-31T17:05:47;24.35;;;15.48;;
60472;SDS011;46318;52.716;6.444;2022-10-31T17:08:13;21.77;;;16.83;;
60472;SDS011;46318;52.716;6.444;2022-10-31T17:10:42;21.42;;;15.82;;
60472;SDS011;46318;52.716;6.444;2022-10-31T17:13:12;26.95;;;17.58;;
60472;SDS011;46318;52.716;6.444;2022-10-31T17:15:45;22.13;;;16.90;;
60472;SDS011;46318;52.716;6.444;2022-10-31T17:18:13;25.42;;;17.70;;
60472;SDS011;46318;52.716;6.444;2022-10-31T17:20:40;22.42;;;17.17;;
60472;SDS011;46318;52.716;6.444;2022-10-31T17:23:08;23.48;;;17.77;;
60472;SDS011;46318;52.716;6.444;2022-10-31T17:25:36;25.55;;;18.30;;
60472;SDS011;46318;52.716;6.444;2022-10-31T17:28:02;25.65;;;18.83;;
60472;SDS011;46318;52.716;6.444;2022-10-31T17:30:29;27.40;;;18.85;;